Airfield :
LOGIN :

Register | Disclaimer

   EN    FR    IT 

 










Legend :    VFR   Marginal VFR   IFR   Intensive IFR   Very Intensive IFR
Visi :
Ceiling :
>= 8 km
>= 3000ft
5 to 8 km
1000 to 3000 ft
1500m to 5 km
500 to 1000 ft
800 to 1500m
200 to 500 ft
< 800m
< 200 ft
Symbols :   Thunderstorms  Fog  Heavy snow  Heavy precipitations  Wind > 20 kt
SIGMETs :     Misc.  Thunderstorms  Icing  Turbulence  Mountain Waves  Volcanic Ashes






- Airport Elevation : 348 ft
- IATA code : LDV


LFRJ - Landivisiau

CURRENT METAR :
  • 082030Z AUTO 26009KT 9999 SCT036/// SCT042/// BKN054/// ///TCU 05/02 Q1007

EXPIRED METARs :
  • 082000Z AUTO 22009KT 9999 SCT037/// BKN043/// BKN049/// ///TCU 03/02 Q1007
  • 081930Z AUTO 24006KT 220V280 9999 BKN034/// BKN043/// BKN062/// ///TCU 04/02 Q1006
  • 081900Z AUTO 20008KT 9999 FEW033/// BKN042/// BKN052/// ///TCU 03/02 Q1006
  • 081830Z AUTO 25003KT 9999 3900 -SNRA FEW023/// BKN040/// BKN056/// ///TCU 04/01 Q1006
  • 081800Z AUTO 29006KT 240V340 9999 -RA FEW022/// SCT033/// BKN044/// ///CB 04/01 Q1005

TAF TAF LFRJ
Valid from the 08 at 15:00 until the 09 at 00:00 UTC


081400Z 0815/0824 28015KT 9999 FEW020 SCT200
TEMPO 0815/0821 30015G30KT 3500 SHRA BKN015CB
PROB40
TEMPO 0815/0821 2900 SHRAGS BKN015CB
PROB30
TEMPO 0815/0818 1400 TSRAGS BKN014CB
TEMPO 0821/0824 4000 SHRA SCT020TCU



MET'MAP, your aeronautical weather chart ! - Copyright ORBIFLY December 2007 - Disclaimer

ORBIFLY MET'MAP TEAM :

Programming & Development : Alexandra Zaïnal
Concept & original design : Baudouin d'Aumeries
Assistance for programming : Marc-Olivier Méhu
Technical & hardware support : Manuel Goepfert

Contact : metmap@orbifly.com




SOURCES & CREDITS :

   NOAA